Deerpark, New York
Current Conditions -  °F | °C
As of 11:53 AM on Sunday 23 Nov 2014 (Local Time) from KFRG Reporting Station
Clear Clear  
Wind Chill: 53°   Ceiling: Unl
Heat Index: 53°   Visibility: 10mi
Dew Point: 28°   Wind: 5mph
Humidity: 38%   Direction: 220°SW
Pressure: 30.16"   Gusts: NA
Location:  40.7623°N, 73.3217°W
Report Text: KFRG 231653Z 22004KT 10SM CLR 12/M02 A3016 RMK AO2 SLP213 T01171022
Loading
Personal Weather Stations






























Interactive Weather Map New forecast layout! Learn more

10-Day Weather Forecast

Advertisements
Track Severe Weather on mobile